• Join FlightAware (Why Join?)
  • Login
  • US Flag 
Gobble Gobble! 
03:01PM EST


 

Airport Tracker/Info


-or-


 

Live Flight TrackerFlight Track Log ✈ AAL832 ✈ 03-May-2013 ✈ KORD - KMIA

Flight Track Log - Related Links

Times and Time Zones

All times are in EDT time to prevent confusion due to time zone crossing. See the AAL832 flight status page for this flight to view local times or setup timezone preferences in your user account.

Time Position Orientation Groundspeed Altitude Reporting Facility
EDT Latitude Longitude Course Direction KTS MPH feet Rate Location/Type
07:39PM 42.0167 -87.8500 180° South 170 196 2,800  Level Chicago TRACON
07:40PM 41.7707 -87.7833 154° Southeast  Level Estimated
07:40PM 41.9667 -87.8333 166° South 248 285 4,900  Level Chicago TRACON
07:41PM 41.6652 -87.7219 155° Southeast  Level Estimated
07:41PM 41.9000 -87.8667 200° South 262 302 5,100  Level Chicago TRACON
07:42PM 41.5596 -87.6607 153° Southeast  Level Estimated
07:42PM 41.8383 -87.8944 199° South 257 296 5,200  Level Chicago Center
07:43PM 41.4541 -87.5997 166° South  Level Estimated
07:43PM 41.7675 -87.9131 191° South 259 298 8,400  Level Chicago Center
07:44PM 41.3526 -87.5413 180° South  Level Estimated
07:44PM 41.6947 -87.9317 191° South 265 305 11,200  Level Chicago Center
07:45PM 41.6006 -87.9581 192° South 286 329 14,200 2,220 Climbing Chicago Center
07:46PM 41.5086 -87.9792 190° South 335 386 15,900 2,160 Climbing Chicago Center
07:47PM 41.4067 -87.9892 184° South 353 406 18,700 2,400 Climbing Chicago Center
07:48PM 41.3047 -87.9603 168° South 368 423 20,900 2,040 Climbing Chicago Center
07:49PM 41.2119 -87.9006 154° Southeast 371 427 23,000 1,860 Climbing Chicago Center
07:50PM 41.1153 -87.8367 154° Southeast 385 443 24,800 1,680 Climbing Chicago Center
07:51PM 41.0144 -87.7719 154° Southeast 402 463 26,500 1,500 Climbing Chicago Center
07:52PM 40.9117 -87.7036 153° Southeast 412 474 28,000 1,440 Climbing Chicago Center
07:53PM 40.7825 -87.6200 154° Southeast 428 493 29,500 1,500 Climbing Chicago Center
07:54PM 40.6731 -87.5503 154° Southeast 437 503 31,100 1,800 Climbing Chicago Center
07:55PM 40.5656 -87.4794 153° Southeast 434 499 33,200 1,920 Climbing Chicago Center
07:56PM 40.4478 -87.4097 156° South 428 493 35,100 1,560 Climbing Chicago Center
07:57PM 40.3444 -87.3422 154° Southeast 420 483 36,500 1,260 Climbing Chicago Center
07:58PM 40.2419 -87.2789 155° Southeast 411 473 37,800 720 Climbing Chicago Center
07:59PM 40.1411 -87.2119 153° Southeast 410 472 38,000 60 Climbing Chicago Center
08:00PM 40.0558 -87.1603 155° Southeast 412 474 38,000  Level Indianapolis Center
08:01PM 39.9564 -87.0919 152° Southeast 407 468 38,000 420 Level Indianapolis Center
08:02PM 39.8614 -87.0117 147° Southeast 412 474 38,900 480 Climbing Indianapolis Center
08:03PM 39.7681 -86.9319 147° Southeast 405 466 39,000  Climbing Indianapolis Center
08:04PM 39.6569 -86.8389 147° Southeast 400 460 39,000  Level Indianapolis Center
08:05PM 39.5642 -86.7617 147° Southeast 402 463 39,000  Level Indianapolis Center
08:06PM 39.4711 -86.6836 147° Southeast 402 463 39,000  Level Indianapolis Center
08:07PM 39.3769 -86.6064 148° Southeast 404 465 39,000  Level Indianapolis Center
08:08PM 39.2828 -86.5292 148° Southeast 405 466 39,000  Level Indianapolis Center
08:09PM 39.1886 -86.4517 147° Southeast 404 465 39,000  Level Indianapolis Center
08:10PM 39.0756 -86.3575 147° Southeast 407 468 39,000  Level Indianapolis Center
08:11PM 38.9811 -86.2800 147° Southeast 405 466 39,000  Level Indianapolis Center
08:12PM 38.8853 -86.2019 148° Southeast 408 470 39,000  Level Indianapolis Center
08:13PM 38.7989 -86.1328 148° Southeast 408 470 39,000  Level Indianapolis Center
08:14PM 38.6819 -86.0381 148° Southeast 410 472 39,000  Level Indianapolis Center
08:15PM 38.5858 -85.9597 147° Southeast 407 468 39,000  Level Indianapolis Center
08:16PM 38.4889 -85.8808 147° Southeast 409 471 39,000  Level Indianapolis Center
08:17PM 38.3911 -85.8033 148° Southeast 409 471 39,000  Level Indianapolis Center
08:18PM 38.2950 -85.7247 147° Southeast 406 467 39,000  Level Indianapolis Center
08:19PM 38.1972 -85.6486 149° Southeast 407 468 39,000  Level Indianapolis Center
08:20PM 38.0992 -85.5714 148° Southeast 411 473 39,000  Level Indianapolis Center
08:22PM 38.0039 -85.4939 147° Southeast 406 467 39,000  Level Indianapolis Center
08:23PM 37.9050 -85.4178 149° Southeast 409 471 39,000  Level Indianapolis Center
08:24PM 37.7994 -85.3353 148° Southeast 405 466 39,000  Level Indianapolis Center
08:25PM 37.7039 -85.2600 148° Southeast 405 466 39,000  Level Indianapolis Center
08:26PM 37.6072 -85.1847 148° Southeast 407 468 39,000  Level Indianapolis Center
08:27PM 37.5117 -85.1111 149° Southeast 401 461 39,000  Level Indianapolis Center
08:28PM 37.3997 -85.0244 148° Southeast 404 465 39,000  Level Indianapolis Center
08:29PM 37.3031 -84.9500 149° Southeast 404 465 39,000  Level Indianapolis Center
08:30PM 37.2069 -84.8769 149° Southeast 404 465 39,000  Level Indianapolis Center
08:31PM 37.1117 -84.8028 148° Southeast 403 464 39,000  Level Indianapolis Center
08:32PM 37.0231 -84.7342 148° Southeast 403 464 39,000  Level Indianapolis Center
08:33PM 36.9269 -84.6614 149° Southeast 402 463 39,000  Level Indianapolis Center
08:34PM 36.8119 -84.5739 149° Southeast 401 461 39,000  Level Indianapolis Center
08:35PM 36.7153 -84.5003 149° Southeast 404 465 39,000  Level Indianapolis Center
08:36PM 36.6178 -84.4258 148° Southeast 401 461 39,000  Level Indianapolis Center
08:37PM 36.5217 -84.3539 149° Southeast 402 463 39,000  Level Indianapolis Center
08:38PM 36.4269 -84.2825 149° Southeast 403 464 39,000  Level Indianapolis Center
08:39PM 36.3522 -84.2269 149° Southeast 407 468 39,000  Level Atlanta Center
08:40PM 36.2458 -84.1494 150° Southeast 407 468 39,000  Level Atlanta Center
08:41PM 36.1481 -84.0772 149° Southeast 407 468 39,000  Level Atlanta Center
08:42PM 36.0500 -84.0028 148° Southeast 407 468 39,000  Level Atlanta Center
08:43PM 35.9519 -83.9336 150° Southeast 407 468 39,000  Level Atlanta Center
08:44PM 35.8558 -83.8569 147° Southeast 407 468 39,000  Level Atlanta Center
08:45PM 35.7597 -83.7778 146° Southeast 412 474 39,000  Level Atlanta Center
08:46PM 35.6636 -83.7014 147° Southeast 412 474 39,000  Level Atlanta Center
08:47PM 35.5672 -83.6225 146° Southeast 412 474 39,000  Level Atlanta Center
08:48PM 35.4711 -83.5442 146° Southeast 412 474 39,000  Level Atlanta Center
08:49PM 35.3747 -83.4681 147° Southeast 412 474 39,000  Level Atlanta Center
08:50PM 35.2764 -83.3900 147° Southeast 417 480 39,000  Level Atlanta Center
08:51PM 35.2008 -83.3297 147° Southeast 417 480 39,000  Level Atlanta Center
08:52PM 35.0961 -83.2467 147° Southeast 417 480 39,000  Level Atlanta Center
08:53PM 34.9994 -83.1717 148° Southeast 417 480 39,000  Level Atlanta Center
08:54PM 34.8925 -83.0817 145° Southeast 418 481 39,000  Level Atlanta Center
08:55PM 34.7981 -83.0067 147° Southeast 424 488 39,000  Level Atlanta Center
08:56PM 34.7014 -82.9297 147° Southeast 417 480 39,000  Level Atlanta Center
08:57PM 34.6025 -82.8553 148° Southeast 417 480 39,000  Level Atlanta Center
08:58PM 34.5058 -82.7783 147° Southeast 422 486 39,000  Level Atlanta Center
08:59PM 34.4111 -82.7042 147° Southeast 412 474 39,000  Level Atlanta Center
09:00PM 34.3142 -82.6278 147° Southeast 418 481 39,000  Level Atlanta Center
09:01PM 34.2172 -82.5542 148° Southeast 418 481 39,000  Level Atlanta Center
09:02PM 34.1394 -82.4928 147° Southeast 418 481 39,000  Level Atlanta Center
09:03PM 34.0297 -82.4069 147° Southeast 423 487 39,000  Level Atlanta Center
09:04PM 33.9306 -82.3314 148° Southeast 423 487 39,000  Level Atlanta Center
09:05PM 33.8333 -82.2483 145° Southeast 423 487 39,000 -240 Level Atlanta Center
09:06PM 33.7300 -82.1756 150° Southeast 423 487 38,600 -480 Descending Atlanta Center
09:07PM 33.6189 -82.1478 168° South 408 470 38,100 -300 Descending Atlanta Center
09:08PM 33.5039 -82.1381 176° South 408 470 38,000 -60 Descending Atlanta Center
09:09PM 33.3889 -82.1256 175° South 419 482 38,000  Level Atlanta Center
09:10PM 33.2719 -82.1133 175° South 424 488 38,000  Level Atlanta Center
09:11PM 33.1547 -82.1008 175° South 424 488 38,000  Level Atlanta Center
09:12PM 33.0378 -82.0886 175° South 424 488 38,000  Level Atlanta Center
09:14PM 32.7525 -82.0578 175° South 437 503 38,000  Level Jacksonville Center
09:15PM 32.6356 -82.0414 173° South 437 503 38,000  Level Jacksonville Center
09:16PM 32.5186 -82.0278 174° South 432 497 38,000  Level Jacksonville Center
09:17PM 32.4036 -82.0142 174° South 419 482 38,000  Level Jacksonville Center
09:18PM 32.2969 -81.9956 172° South 419 482 38,000  Level Jacksonville Center
09:19PM 32.1714 -81.9575 166° South 431 496 38,000  Level Jacksonville Center
09:20PM 32.0564 -81.9242 166° South 431 496 38,000  Level Jacksonville Center
09:21PM 31.9539 -81.8911 165° South 431 496 38,000  Level Jacksonville Center
09:22PM 31.8261 -81.8508 165° South 431 496 38,000  Level Jacksonville Center
09:23PM 31.7236 -81.8203 166° South 431 496 38,000  Level Jacksonville Center
09:24PM 31.5958 -81.7803 165° South 427 491 38,000  Level Jacksonville Center
09:25PM 31.4808 -81.7475 166° South 432 497 38,000  Level Jacksonville Center
09:26PM 31.3739 -81.7147 165° South 432 497 38,000  Level Jacksonville Center
09:27PM 31.2589 -81.6822 166° South 432 497 38,000  Level Jacksonville Center
09:28PM 31.1417 -81.6475 166° South 432 497 38,000  Level Jacksonville Center
09:29PM 31.0264 -81.6125 165° South 432 497 38,000  Level Jacksonville Center
09:30PM 30.9092 -81.5778 166° South 432 497 38,000  Level Jacksonville Center
09:31PM 30.7917 -81.5431 166° South 432 497 38,000  Level Jacksonville Center
09:32PM 30.6767 -81.5111 167° South 432 497 38,000  Level Jacksonville Center
09:33PM 30.5572 -81.4764 166° South 432 497 38,000  Level Jacksonville Center
09:34PM 30.4419 -81.4422 166° South 432 497 38,000  Level Jacksonville Center
09:35PM 30.3247 -81.4078 166° South 432 497 38,000  Level Jacksonville Center
09:36PM 30.2075 -81.3736 166° South 432 497 38,000  Level Jacksonville Center
09:37PM 30.0942 -81.3417 166° South 432 497 38,000  Level Jacksonville Center
09:38PM 29.9769 -81.3075 166° South 432 497 38,000  Level Jacksonville Center
09:39PM 29.8681 -81.2758 166° South 425 489 38,000  Level Jacksonville Center
09:40PM 29.7528 -81.2442 167° South 425 489 38,000  Level Jacksonville Center
09:41PM 29.6394 -81.2103 165° South 425 489 38,000  Level Jacksonville Center
09:42PM 29.5222 -81.1767 166° South 425 489 38,000  Level Jacksonville Center
09:44PM 29.2417 -81.0917 165° South 428 493 38,000  Level Miami Center
09:45PM 29.1261 -81.0469 161° South 433 498 38,000  Level Miami Center
09:46PM 29.0128 -81.0022 161° South 433 498 38,000  Level Miami Center
09:47PM 28.8872 -80.9478 159° South 438 504 38,000  Level Miami Center
09:48PM 28.7964 -80.9114 161° South 444 511 38,000  Level Miami Center
09:49PM 28.6686 -80.8594 160° South 438 504 38,000  Level Miami Center
09:50PM 28.5383 -80.8075 161° South 443 510 38,000  Level Miami Center
09:51PM 28.4333 -80.7658 161° South 453 521 38,000  Level Miami Center
09:52PM 28.3094 -80.7144 160° South 458 527 38,000  Level Miami Center
09:53PM 28.1897 -80.6681 161° South 463 533 38,000  Level Miami Center
09:54PM 28.0719 -80.6194 160° South 463 533 38,000 -1,020 Level Miami Center
09:56PM 27.9519 -80.5800 164° South 458 527 36,000 -2,520 Descending Miami Center
09:56PM 27.8111 -80.5356 164° South 458 527 33,100 -2,940 Descending Miami Center
09:57PM 27.6828 -80.4939 164° South 469 540 30,200 -2,220 Descending Miami Center
09:58PM 27.5567 -80.4431 160° South 474 545 28,700 -1,860 Descending Miami Center
09:59PM 27.4367 -80.3950 160° South 474 545 26,600 -2,160 Descending Miami Center
10:00PM 27.3189 -80.3492 161° South 461 531 24,500 -2,160 Descending Miami Center
10:02PM 27.2053 -80.3014 159° South 448 516 22,300 -2,100 Descending Miami Center
10:02PM 27.0956 -80.2586 161° South 435 501 20,400 -2,040 Descending Miami Center
10:03PM 26.9900 -80.2133 159° South 424 488 18,300 -2,220 Descending Miami Center
10:04PM 26.8886 -80.1708 160° South 397 457 16,100 -2,040 Descending Miami Center
10:05PM 26.7914 -80.1308 160° South 386 444 14,300 -1,560 Descending Miami Center
10:06PM 26.7044 -80.0983 162° South 381 438 13,000 -780 Descending Miami Center
10:07PM 26.6153 -80.0772 168° South 355 409 12,900 -420 Descending Miami Center
10:08PM 26.5903 -80.0742 174° South 354 407 12,600 -1,500 Descending Miami Center
10:09PM 26.4903 -80.0553 170° South 347 399 11,000 -960 Descending Miami Center
10:09PM 26.4069 -80.0461 174° South 352 405 10,800 -540 Descending Miami Center
10:10PM 26.3192 -80.0483 181° South 337 388 10,000 -420 Descending Miami Center
10:12PM 26.2356 -80.0531 183° South 314 361 10,000 -180 Level Miami Center
10:12PM 26.1497 -80.0622 185° South 314 361 9,700 -1,020 Descending Miami Center
10:13PM 26.0703 -80.0625 180° South 302 348 8,000 -1,800 Descending Miami Center
10:15PM 25.9931 -80.0675 183° South 291 335 6,100 -1,680 Descending Miami Center
10:15PM 25.9156 -80.0744 185° South 286 329 4,700 -1,500 Descending Miami Center
10:16PM 25.8925 -80.0786 189° South 273 314 4,200 -1,440 Descending Miami Center
10:17PM 25.8481 -80.1006 204° Southwest 273 314 3,200 -1,620 Descending Miami Center
10:17PM 25.8350 -80.1208 234° Southwest 257 296 2,600 -1,200 Descending Miami Center
10:18PM 25.8047 -80.1756 238° Southwest 184 212 1,700 -900 Descending Miami Center
10:19PM 25.8014 -80.2192 265° West 144 166 900 -900 Descending Miami Center